createdAt,value
2022-12-08T00:00:22.982Z,1.58
2022-12-08T00:05:44.494Z,1.35
2022-12-08T00:10:49.453Z,1.92
2022-12-08T00:15:52.993Z,1.50
2022-12-08T00:20:57.760Z,0.73
2022-12-08T00:26:05.957Z,2.03
2022-12-08T00:31:11.134Z,1.67
2022-12-08T00:36:15.313Z,1.55
2022-12-08T00:41:41.565Z,1.02
2022-12-08T00:46:45.363Z,1.50
2022-12-08T00:51:48.647Z,1.35
2022-12-08T00:56:51.873Z,0.77
2022-12-08T01:01:55.835Z,1.45
2022-12-08T01:07:00.484Z,1.08
2022-12-08T01:12:03.665Z,1.10
2022-12-08T01:17:06.781Z,1.60
2022-12-08T01:22:09.946Z,1.65
2022-12-08T01:27:16.366Z,1.58
2022-12-08T01:32:19.392Z,1.70
2022-12-08T01:37:22.469Z,1.77
2022-12-08T01:42:26.023Z,1.95
2022-12-08T01:47:42.107Z,2.20
2022-12-08T01:52:56.583Z,1.88
2022-12-08T01:58:11.051Z,1.92
2022-12-08T02:03:20.413Z,1.98
2022-12-08T02:08:23.943Z,1.70
2022-12-08T02:13:28.236Z,2.25
2022-12-08T02:19:30.345Z,1.60
2022-12-08T02:24:56.700Z,2.35
2022-12-08T02:30:06.527Z,1.77
2022-12-08T02:35:32.119Z,1.80
2022-12-08T02:40:54.172Z,1.48
2022-12-08T02:51:07.096Z,1.98
2022-12-08T02:56:19.052Z,1.30
2022-12-08T03:01:50.240Z,1.95
2022-12-08T03:07:07.933Z,3.08
2022-12-08T03:12:18.959Z,2.53
2022-12-08T03:17:26.646Z,2.17
2022-12-08T03:22:30.123Z,2.55
2022-12-08T03:27:33.458Z,2.40
2022-12-08T03:32:48.063Z,2.63
2022-12-08T03:37:51.219Z,2.08
2022-12-08T03:42:54.210Z,2.78
2022-12-08T03:47:57.595Z,3.38
2022-12-08T03:53:00.581Z,2.75
2022-12-08T03:58:03.663Z,2.80
2022-12-08T04:03:07.064Z,2.85
2022-12-08T04:08:10.218Z,2.22
2022-12-08T04:13:13.367Z,1.85
2022-12-08T04:18:16.801Z,2.63
2022-12-08T04:23:20.050Z,2.10
2022-12-08T04:28:23.437Z,2.88
2022-12-08T04:33:26.921Z,2.80
2022-12-08T04:38:30.133Z,2.17
2022-12-08T04:43:33.445Z,2.47
2022-12-08T04:48:40.499Z,3.50
2022-12-08T04:53:46.659Z,4.13
2022-12-08T04:58:50.298Z,3.35
2022-12-08T05:03:53.437Z,3.13
2022-12-08T05:08:56.482Z,3.80
2022-12-08T05:13:59.583Z,3.22
2022-12-08T05:19:02.707Z,3.17
2022-12-08T05:24:06.153Z,4.05
2022-12-08T05:29:09.230Z,3.80
2022-12-08T05:34:12.508Z,4.03
2022-12-08T05:39:16.125Z,4.25
2022-12-08T05:44:19.189Z,3.80
2022-12-08T05:49:22.309Z,5.80
2022-12-08T05:54:25.626Z,3.92
2022-12-08T05:59:28.675Z,4.20
2022-12-08T06:04:31.732Z,4.00
2022-12-08T06:09:34.754Z,4.85
2022-12-08T06:14:41.104Z,4.38
2022-12-08T06:19:44.384Z,5.07
2022-12-08T06:24:47.420Z,4.75
2022-12-08T06:29:50.433Z,4.05
2022-12-08T06:34:53.752Z,3.15
2022-12-08T06:39:57.188Z,4.03
2022-12-08T06:45:00.939Z,3.13
2022-12-08T06:50:05.430Z,4.47
2022-12-08T06:55:10.145Z,3.45
2022-12-08T07:00:13.758Z,3.63
2022-12-08T07:05:17.018Z,4.72
2022-12-08T07:10:20.192Z,4.53
2022-12-08T07:15:23.345Z,4.03
2022-12-08T07:20:26.562Z,4.70
2022-12-08T07:25:29.697Z,3.92
2022-12-08T07:30:32.824Z,3.88
2022-12-08T07:35:36.294Z,5.10
2022-12-08T07:40:39.690Z,4.68
2022-12-08T07:45:43.065Z,4.88
2022-12-08T07:50:46.303Z,4.75
2022-12-08T07:55:49.428Z,4.50
2022-12-08T08:00:53.031Z,4.45
2022-12-08T08:05:56.155Z,5.03
2022-12-08T08:10:59.306Z,5.30
2022-12-08T08:16:07.357Z,4.93
2022-12-08T08:21:43.729Z,3.67
2022-12-08T08:26:37.511Z,4.57
2022-12-08T08:31:40.938Z,4.90
2022-12-08T08:36:45.768Z,4.85
2022-12-08T08:41:49.528Z,5.57
2022-12-08T08:46:52.883Z,4.80
2022-12-08T08:51:56.863Z,4.55
2022-12-08T08:57:00.938Z,5.07
2022-12-08T09:02:03.953Z,4.50
2022-12-08T09:07:07.814Z,5.00
2022-12-08T09:12:11.219Z,4.80
2022-12-08T09:17:15.161Z,5.45
2022-12-08T09:22:18.405Z,4.70
2022-12-08T09:27:22.294Z,3.90
2022-12-08T09:32:25.686Z,4.60
2022-12-08T09:37:31.419Z,4.88
2022-12-08T09:42:42.352Z,4.10
2022-12-08T09:47:48.280Z,4.28
2022-12-08T09:53:21.244Z,4.60
2022-12-08T09:58:32.627Z,4.20
2022-12-08T10:03:35.567Z,4.65
2022-12-08T10:08:48.878Z,4.13
2022-12-08T10:14:30.797Z,4.13
2022-12-08T10:19:36.053Z,4.63
2022-12-08T10:24:48.558Z,4.18
2022-12-08T10:29:52.855Z,4.40
2022-12-08T10:35:16.273Z,4.35
2022-12-08T10:40:19.551Z,3.92
2022-12-08T10:45:23.335Z,4.38
2022-12-08T10:50:32.491Z,4.28
2022-12-08T10:56:07.124Z,4.25
2022-12-08T11:01:29.245Z,4.63
2022-12-08T11:06:38.885Z,4.32
2022-12-08T11:11:53.607Z,6.70
2022-12-08T11:17:06.179Z,4.82
2022-12-08T11:22:31.163Z,3.20
2022-12-08T11:27:36.916Z,4.20
2022-12-08T11:32:45.141Z,5.72
2022-12-08T11:37:49.864Z,3.92
2022-12-08T11:43:25.627Z,6.35
2022-12-08T11:48:44.374Z,4.15
2022-12-08T11:54:18.188Z,4.35
2022-12-08T11:59:31.780Z,4.28
2022-12-08T12:04:41.168Z,4.95
2022-12-08T12:10:06.329Z,4.00
2022-12-08T12:15:15.831Z,4.40
2022-12-08T12:20:59.270Z,3.60
2022-12-08T12:26:06.824Z,4.82
2022-12-08T12:31:15.992Z,3.95
2022-12-08T12:36:19.333Z,4.50
2022-12-08T12:41:33.271Z,4.15
2022-12-08T12:46:36.582Z,4.35
2022-12-08T12:51:39.690Z,3.70
2022-12-08T12:56:50.823Z,4.00
2022-12-08T13:01:56.039Z,4.00
2022-12-08T13:07:00.016Z,4.05
2022-12-08T13:12:23.240Z,4.00
2022-12-08T13:17:32.685Z,4.07
2022-12-08T13:22:54.066Z,4.72
2022-12-08T13:27:57.163Z,4.43
2022-12-08T13:33:18.551Z,4.03
2022-12-08T13:38:26.715Z,3.90
2022-12-08T13:44:20.097Z,3.63
2022-12-08T13:55:25.917Z,2.95
2022-12-08T14:00:15.856Z,4.38
2022-12-08T14:05:40.585Z,2.45
2022-12-08T14:10:48.304Z,4.22
2022-12-08T14:15:51.492Z,3.75
2022-12-08T14:21:20.887Z,3.47
2022-12-08T14:26:24.642Z,3.60
2022-12-08T14:31:29.369Z,3.25
2022-12-08T14:36:33.928Z,3.15
2022-12-08T14:41:37.457Z,3.38
2022-12-08T14:47:05.810Z,3.67
2022-12-08T14:52:11.862Z,3.40
2022-12-08T14:57:15.836Z,3.38
2022-12-08T15:02:19.745Z,2.70
2022-12-08T15:07:32.162Z,3.50
2022-12-08T15:12:35.299Z,4.32
2022-12-08T15:17:50.480Z,3.08
2022-12-08T15:22:55.047Z,3.33
2022-12-08T15:27:58.341Z,3.30
2022-12-08T15:33:01.426Z,2.70
2022-12-08T15:38:05.623Z,3.47
2022-12-08T15:43:11.430Z,3.47
2022-12-08T15:48:23.143Z,3.40
2022-12-08T15:53:26.583Z,3.00
2022-12-08T15:58:52.922Z,3.47
2022-12-08T16:04:36.765Z,3.72
2022-12-08T16:09:19.827Z,2.90
2022-12-08T16:15:23.401Z,3.00
2022-12-08T16:19:46.365Z,2.83
2022-12-08T16:24:49.448Z,3.15
2022-12-08T16:29:52.547Z,3.35
2022-12-08T16:34:55.714Z,4.68
2022-12-08T16:40:00.515Z,2.85
2022-12-08T16:45:07.784Z,3.22
2022-12-08T16:50:21.212Z,3.50
2022-12-08T16:55:24.393Z,3.45
2022-12-08T17:00:29.818Z,3.05
2022-12-08T17:05:33.200Z,1.95
2022-12-08T17:10:39.656Z,2.28
2022-12-08T17:15:42.733Z,2.28
2022-12-08T17:20:45.911Z,1.88
2022-12-08T17:26:01.796Z,2.70
2022-12-08T17:31:17.942Z,2.13
2022-12-08T17:36:22.191Z,2.95
2022-12-08T17:41:25.346Z,2.40
2022-12-08T17:46:28.556Z,2.10
2022-12-08T17:51:31.726Z,2.67
2022-12-08T17:56:35.332Z,2.63
2022-12-08T18:01:38.845Z,2.63
2022-12-08T18:06:42.507Z,1.80
2022-12-08T18:11:46.571Z,2.25
2022-12-08T18:16:49.828Z,1.38
2022-12-08T18:21:53.095Z,1.85
2022-12-08T18:26:58.000Z,0.47
2022-12-08T18:32:01.238Z,1.85
2022-12-08T18:37:04.642Z,1.70
2022-12-08T18:42:23.170Z,1.13
2022-12-08T18:47:26.328Z,1.40
2022-12-08T18:52:32.224Z,0.50
2022-12-08T18:57:40.427Z,0.70
2022-12-08T19:02:43.835Z,1.40
2022-12-08T19:07:47.083Z,1.38
2022-12-08T19:12:51.553Z,1.25
2022-12-08T19:17:54.697Z,0.80
2022-12-08T19:22:57.828Z,1.35
2022-12-08T19:28:00.904Z,0.65
2022-12-08T19:33:04.015Z,0.68
2022-12-08T19:38:07.393Z,0.93
2022-12-08T19:43:35.626Z,0.98
2022-12-08T19:48:38.768Z,0.80
2022-12-08T19:53:47.398Z,1.08
2022-12-08T19:58:51.154Z,1.00
2022-12-08T20:03:54.189Z,0.73
2022-12-08T20:08:57.343Z,0.50
2022-12-08T20:14:00.449Z,0.60
2022-12-08T20:19:03.906Z,0.80
2022-12-08T20:24:07.705Z,0.75
2022-12-08T20:29:10.922Z,1.10
2022-12-08T20:34:15.922Z,0.80
2022-12-08T20:39:19.181Z,0.82
2022-12-08T20:44:22.445Z,0.85
2022-12-08T20:49:29.753Z,1.00
2022-12-08T20:54:37.638Z,0.55
2022-12-08T20:59:40.925Z,0.45
2022-12-08T21:04:44.258Z,0.82
2022-12-08T21:09:47.809Z,0.90
2022-12-08T21:14:51.151Z,0.70
2022-12-08T21:19:54.268Z,0.50
2022-12-08T21:24:57.324Z,0.45
2022-12-08T21:30:00.461Z,0.70
2022-12-08T21:35:03.691Z,0.90
2022-12-08T21:40:08.096Z,1.00
2022-12-08T21:45:16.900Z,0.55
2022-12-08T21:50:22.184Z,0.40
2022-12-08T21:55:25.408Z,0.38
2022-12-08T22:00:28.773Z,0.80
2022-12-08T22:05:32.794Z,1.10
2022-12-08T22:10:36.014Z,0.95
2022-12-08T22:15:39.280Z,0.70
2022-12-08T22:20:44.091Z,0.80
2022-12-08T22:25:58.392Z,1.10
2022-12-08T22:31:01.511Z,0.88
2022-12-08T22:36:10.743Z,0.82
2022-12-08T22:41:14.775Z,1.10
2022-12-08T22:46:24.454Z,0.90
2022-12-08T22:51:27.792Z,1.10
2022-12-08T22:56:31.109Z,0.82
2022-12-08T23:01:35.024Z,1.00
2022-12-08T23:06:38.213Z,0.88
2022-12-08T23:11:41.401Z,1.17
2022-12-08T23:16:45.084Z,1.15
2022-12-08T23:21:48.321Z,1.10
2022-12-08T23:26:51.492Z,1.45
2022-12-08T23:31:54.713Z,1.05
2022-12-08T23:36:58.089Z,0.68
2022-12-08T23:42:01.486Z,1.63
2022-12-08T23:47:04.889Z,1.63
2022-12-08T23:52:08.266Z,1.55
2022-12-08T23:57:11.678Z,1.98
